Time;durP1;ratioP1;P1;durP2;ratioP2;P2;SDS_P1;SDS_P2;PMS_P1;PMS_P2;Temp;Humidity;BMP_temperature;BMP_pressure;BME280_temperature;BME280_humidity;BME280_pressure;Samples;Min_cycle;Max_cycle;Signal;HPM_P1;HPM_P2
2022/11/23 00:01:31;;;;;;;50.45;42.28;;;;;;;;;;5070304;28;20853;-71
2022/11/23 00:03:57;;;;;;;48.20;40.92;;;;;;;;;;5075561;28;20020;-72
2022/11/23 00:06:23;;;;;;;49.65;39.45;;;;;;;;;;5073974;28;20348;-71
2022/11/23 00:08:49;;;;;;;40.53;35.53;;;;;;;;;;5078195;28;20525;-71
2022/11/23 00:11:15;;;;;;;38.40;33.90;;;;;;;;;;5082095;28;20028;-71
2022/11/23 00:13:41;;;;;;;40.15;29.98;;;;;;;;;;5076936;28;20031;-71
2022/11/23 00:16:07;;;;;;;33.38;29.80;;;;;;;;;;5051570;28;20028;-71
2022/11/23 00:18:32;;;;;;;37.60;31.10;;;;;;;;;;5072269;28;20082;-72
2022/11/23 00:20:58;;;;;;;36.13;31.80;;;;;;;;;;5075561;28;20108;-71
2022/11/23 00:23:23;;;;;;;34.00;30.33;;;;;;;;;;5075532;28;20032;-71
2022/11/23 00:25:48;;;;;;;36.30;32.08;;;;;;;;;;5077914;28;20505;-72
2022/11/23 00:28:14;;;;;;;38.22;31.67;;;;;;;;;;5077560;28;20071;-71
2022/11/23 00:30:39;;;;;;;41.17;36.30;;;;;;;;;;5075309;28;20024;-72
2022/11/23 00:33:04;;;;;;;38.25;33.97;;;;;;;;;;5070656;28;20032;-72
2022/11/23 00:35:30;;;;;;;37.50;31.63;;;;;;;;;;5078795;28;20106;-71
2022/11/23 00:37:55;;;;;;;39.08;32.58;;;;;;;;;;5078013;28;20028;-72
2022/11/23 00:40:20;;;;;;;46.22;36.00;;;;;;;;;;5076576;28;20038;-71
2022/11/23 00:42:46;;;;;;;45.38;37.05;;;;;;;;;;5064077;28;20038;-71
2022/11/23 00:45:11;;;;;;;41.75;36.33;;;;;;;;;;5074634;28;20510;-72
2022/11/23 00:47:36;;;;;;;40.47;34.25;;;;;;;;;;5069118;28;20455;-73
2022/11/23 00:50:02;;;;;;;35.85;30.77;;;;;;;;;;5073953;28;20394;-72
2022/11/23 00:52:27;;;;;;;37.15;31.13;;;;;;;;;;5075261;28;20482;-72
2022/11/23 00:54:52;;;;;;;34.22;30.60;;;;;;;;;;5071649;28;20157;-72
2022/11/23 00:57:18;;;;;;;36.22;31.60;;;;;;;;;;5066905;28;20082;-72
2022/11/23 00:59:43;;;;;;;56.45;44.25;;;;;;;;;;5061936;28;20032;-72
2022/11/23 01:02:08;;;;;;;43.75;36.85;;;;;;;;;;5067467;28;20051;-72
2022/11/23 01:04:34;;;;;;;40.05;34.53;;;;;;;;;;5072172;28;20025;-71
2022/11/23 01:06:59;;;;;;;44.25;34.63;;;;;;;;;;5073489;28;20089;-72
2022/11/23 01:09:25;;;;;;;47.33;36.95;;;;;;;;;;5074007;28;20112;-72
2022/11/23 01:11:51;;;;;;;41.65;34.92;;;;;;;;;;5071916;28;20031;-72
2022/11/23 01:14:16;;;;;;;54.38;41.72;;;;;;;;;;5073766;28;20460;-73
2022/11/23 01:16:42;;;;;;;53.03;40.90;;;;;;;;;;5072571;28;20548;-72
2022/11/23 01:19:10;;;;;;;58.28;44.00;;;;;;;;;;5069511;28;20437;-72
2022/11/23 01:21:35;;;;;;;63.97;48.20;;;;;;;;;;5072160;28;20102;-72
2022/11/23 01:24:08;;;;;;;63.42;48.63;;;;;;;;;;5075387;28;20067;-72
2022/11/23 01:26:33;;;;;;;60.55;47.47;;;;;;;;;;5076886;28;20024;-71
2022/11/23 01:28:59;;;;;;;59.00;44.30;;;;;;;;;;5075523;28;20454;-71
2022/11/23 01:31:24;;;;;;;59.83;46.20;;;;;;;;;;5067825;28;20152;-71
2022/11/23 01:33:53;;;;;;;52.75;40.92;;;;;;;;;;5068471;28;20444;-71
2022/11/23 01:36:20;;;;;;;57.88;44.20;;;;;;;;;;5075561;28;20626;-72
2022/11/23 01:38:46;;;;;;;49.90;38.60;;;;;;;;;;5075983;28;20024;-71
2022/11/23 01:41:12;;;;;;;57.67;46.88;;;;;;;;;;5068522;28;20028;-71
2022/11/23 01:43:38;;;;;;;54.05;43.45;;;;;;;;;;5072092;28;20728;-71
2022/11/23 01:46:04;;;;;;;51.60;41.42;;;;;;;;;;5075811;28;20547;-71
2022/11/23 01:48:31;;;;;;;55.63;42.78;;;;;;;;;;5050364;28;20028;-71
2022/11/23 01:50:57;;;;;;;54.92;45.08;;;;;;;;;;5070375;28;20335;-71
2022/11/23 01:53:23;;;;;;;52.50;42.88;;;;;;;;;;5075257;28;20151;-71
2022/11/23 01:55:50;;;;;;;59.92;49.08;;;;;;;;;;5074343;28;20932;-71
2022/11/23 01:58:18;;;;;;;62.13;48.10;;;;;;;;;;5076350;28;20032;-71
2022/11/23 02:00:44;;;;;;;63.20;50.78;;;;;;;;;;5072218;28;20073;-72
2022/11/23 02:03:10;;;;;;;53.95;43.85;;;;;;;;;;5064818;28;20028;-71
2022/11/23 02:05:41;;;;;;;54.00;42.95;;;;;;;;;;5069934;28;20074;-72
2022/11/23 02:08:07;;;;;;;48.20;38.15;;;;;;;;;;5059469;28;20051;-70
2022/11/23 02:10:32;;;;;;;49.08;39.42;;;;;;;;;;5075338;28;20016;-71
2022/11/23 02:13:05;;;;;;;45.38;36.10;;;;;;;;;;5074214;28;20016;-71
2022/11/23 02:15:30;;;;;;;43.60;34.47;;;;;;;;;;5074061;28;20397;-72
2022/11/23 02:17:57;;;;;;;43.35;35.65;;;;;;;;;;5071737;28;20016;-71
2022/11/23 02:20:22;;;;;;;42.92;35.38;;;;;;;;;;5067433;28;20028;-71
2022/11/23 02:22:51;;;;;;;44.22;34.28;;;;;;;;;;5072262;28;20359;-72
2022/11/23 02:25:48;;;;;;;40.53;32.72;;;;;;;;;;5078008;28;20036;-71
2022/11/23 02:28:15;;;;;;;42.05;32.80;;;;;;;;;;5039418;28;20201;-71
2022/11/23 02:30:42;;;;;;;42.00;35.10;;;;;;;;;;5059654;28;20034;-71
2022/11/23 02:33:07;;;;;;;44.25;34.80;;;;;;;;;;5074512;28;20031;-72
2022/11/23 02:35:33;;;;;;;44.47;35.53;;;;;;;;;;5069282;28;20028;-71
2022/11/23 02:38:00;;;;;;;49.22;37.67;;;;;;;;;;5070554;28;20028;-71
2022/11/23 02:40:33;;;;;;;44.53;35.13;;;;;;;;;;5075092;28;20036;-72
2022/11/23 02:42:59;;;;;;;49.10;38.50;;;;;;;;;;5074912;28;20056;-72
2022/11/23 02:45:34;;;;;;;49.50;36.75;;;;;;;;;;5065778;28;20482;-71
2022/11/23 02:48:00;;;;;;;46.83;35.03;;;;;;;;;;5070836;28;20063;-71
2022/11/23 02:50:25;;;;;;;46.75;37.05;;;;;;;;;;5071985;28;20075;-71
2022/11/23 02:52:51;;;;;;;48.92;35.65;;;;;;;;;;5072306;28;20447;-72
2022/11/23 02:55:16;;;;;;;53.17;41.35;;;;;;;;;;5068779;28;20028;-70
2022/11/23 02:57:41;;;;;;;61.70;45.92;;;;;;;;;;5069932;28;20028;-71
2022/11/23 03:00:07;;;;;;;48.35;38.47;;;;;;;;;;5074392;28;20380;-71
2022/11/23 03:02:32;;;;;;;51.63;38.22;;;;;;;;;;5073018;28;20345;-71
2022/11/23 03:04:58;;;;;;;43.67;32.75;;;;;;;;;;5071377;28;20028;-71
2022/11/23 03:07:23;;;;;;;44.05;33.88;;;;;;;;;;5074540;28;20366;-71
2022/11/23 03:09:48;;;;;;;47.95;37.53;;;;;;;;;;5065896;28;20032;-72
2022/11/23 03:12:15;;;;;;;45.72;36.60;;;;;;;;;;5070737;28;20085;-71
2022/11/23 03:14:40;;;;;;;45.72;35.35;;;;;;;;;;5068682;28;20028;-71
2022/11/23 03:17:05;;;;;;;45.92;35.45;;;;;;;;;;5076076;28;20453;-71
2022/11/23 03:19:30;;;;;;;45.00;34.63;;;;;;;;;;5076961;28;20432;-72
2022/11/23 03:21:56;;;;;;;45.22;35.13;;;;;;;;;;5077482;28;20465;-72
2022/11/23 03:24:21;;;;;;;44.88;35.05;;;;;;;;;;5077426;28;20412;-72
2022/11/23 03:26:46;;;;;;;45.67;34.75;;;;;;;;;;5070401;28;20312;-71
2022/11/23 03:29:12;;;;;;;47.17;36.70;;;;;;;;;;5075868;28;20027;-72
2022/11/23 03:31:37;;;;;;;43.15;32.58;;;;;;;;;;5070519;28;20119;-71
2022/11/23 03:34:02;;;;;;;42.10;33.47;;;;;;;;;;5078662;28;20454;-73
2022/11/23 03:36:28;;;;;;;46.30;35.42;;;;;;;;;;5079123;28;20678;-73
2022/11/23 03:38:53;;;;;;;47.28;35.20;;;;;;;;;;5079950;28;20049;-71
2022/11/23 03:41:18;;;;;;;49.58;37.88;;;;;;;;;;5078989;28;20024;-72
2022/11/23 03:43:44;;;;;;;55.95;38.80;;;;;;;;;;5072990;28;20032;-72
2022/11/23 03:46:09;;;;;;;56.63;42.65;;;;;;;;;;5073653;28;20024;-72
2022/11/23 03:48:34;;;;;;;63.45;43.95;;;;;;;;;;5053473;28;20158;-72
2022/11/23 03:51:00;;;;;;;56.42;43.15;;;;;;;;;;5076986;28;20035;-73
2022/11/23 03:53:25;;;;;;;58.08;41.75;;;;;;;;;;5075507;28;20028;-72
2022/11/23 03:55:50;;;;;;;60.60;43.30;;;;;;;;;;5077387;28;20020;-72
2022/11/23 03:58:16;;;;;;;52.13;35.88;;;;;;;;;;5072969;28;20032;-73
2022/11/23 04:00:41;;;;;;;57.70;40.28;;;;;;;;;;5071617;28;20036;-72
2022/11/23 04:03:06;;;;;;;59.20;41.50;;;;;;;;;;5076260;28;20459;-72
2022/11/23 04:05:32;;;;;;;52.47;38.92;;;;;;;;;;5075327;28;20417;-72
2022/11/23 04:07:57;;;;;;;55.85;40.75;;;;;;;;;;5075165;28;20028;-72
2022/11/23 04:10:22;;;;;;;57.33;41.08;;;;;;;;;;5074153;28;20034;-71
2022/11/23 04:12:52;;;;;;;52.47;40.05;;;;;;;;;;5071861;28;20451;-71
2022/11/23 04:15:17;;;;;;;58.95;42.55;;;;;;;;;;5068667;28;20085;-71
2022/11/23 04:17:42;;;;;;;54.47;40.95;;;;;;;;;;5070390;28;20047;-71
2022/11/23 04:20:08;;;;;;;55.80;41.15;;;;;;;;;;5074331;28;20139;-71
2022/11/23 04:22:33;;;;;;;61.45;43.92;;;;;;;;;;5077396;28;20109;-70
2022/11/23 04:24:58;;;;;;;59.10;43.35;;;;;;;;;;5075250;28;20035;-72
2022/11/23 04:27:24;;;;;;;55.95;41.50;;;;;;;;;;5074211;28;20020;-71
2022/11/23 04:29:49;;;;;;;61.45;44.30;;;;;;;;;;5069329;28;20020;-71
2022/11/23 04:32:14;;;;;;;66.22;45.80;;;;;;;;;;5074599;28;20040;-71
2022/11/23 04:34:40;;;;;;;65.35;47.25;;;;;;;;;;5074717;28;20028;-72
2022/11/23 04:37:05;;;;;;;63.03;43.63;;;;;;;;;;5074215;28;20036;-71
2022/11/23 04:39:30;;;;;;;57.85;42.03;;;;;;;;;;5076240;28;20049;-71
2022/11/23 04:41:56;;;;;;;60.95;44.53;;;;;;;;;;5075582;28;20447;-72
2022/11/23 04:44:21;;;;;;;57.45;39.17;;;;;;;;;;5068651;28;20052;-71
2022/11/23 04:46:49;;;;;;;53.53;39.40;;;;;;;;;;5076123;28;20027;-72
2022/11/23 04:49:14;;;;;;;63.95;42.65;;;;;;;;;;5077647;28;20020;-72
2022/11/23 04:51:39;;;;;;;56.33;40.47;;;;;;;;;;5072646;28;20115;-71
2022/11/23 04:54:05;;;;;;;57.47;42.20;;;;;;;;;;5070614;28;20028;-72
2022/11/23 04:56:30;;;;;;;56.40;40.63;;;;;;;;;;5066819;28;20760;-72
2022/11/23 04:58:55;;;;;;;56.60;38.72;;;;;;;;;;5068751;28;20036;-72
2022/11/23 05:01:21;;;;;;;53.50;39.40;;;;;;;;;;5066687;28;20098;-72
2022/11/23 05:03:46;;;;;;;59.42;43.30;;;;;;;;;;5067951;28;20047;-71
2022/11/23 05:06:11;;;;;;;58.25;42.50;;;;;;;;;;5073766;28;20073;-72
2022/11/23 05:08:37;;;;;;;64.78;46.67;;;;;;;;;;5081158;28;20030;-72
2022/11/23 05:11:02;;;;;;;60.40;45.00;;;;;;;;;;5080635;28;20032;-72
2022/11/23 05:13:27;;;;;;;56.42;41.88;;;;;;;;;;5080164;28;20028;-71
2022/11/23 05:15:53;;;;;;;61.97;46.92;;;;;;;;;;5080851;28;20982;-71
2022/11/23 05:18:18;;;;;;;60.00;44.10;;;;;;;;;;5071711;28;20479;-71
2022/11/23 05:20:45;;;;;;;119.22;93.82;;;;;;;;;;5078858;28;20032;-72
2022/11/23 05:23:11;;;;;;;83.88;65.18;;;;;;;;;;5078211;28;20528;-72
2022/11/23 05:25:36;;;;;;;88.80;67.88;;;;;;;;;;5072771;28;20024;-72
2022/11/23 05:28:02;;;;;;;85.15;62.03;;;;;;;;;;5073962;28;20031;-72
2022/11/23 05:30:27;;;;;;;71.85;52.97;;;;;;;;;;5078097;28;20051;-72
2022/11/23 05:32:53;;;;;;;65.65;48.67;;;;;;;;;;5080629;28;20036;-71
2022/11/23 05:35:18;;;;;;;69.40;55.67;;;;;;;;;;5078567;28;20056;-72
2022/11/23 05:37:43;;;;;;;64.15;48.65;;;;;;;;;;5078236;28;20111;-71
2022/11/23 05:40:10;;;;;;;66.43;53.45;;;;;;;;;;5080590;28;20046;-74
2022/11/23 05:42:35;;;;;;;81.13;58.90;;;;;;;;;;5079631;28;20054;-72
2022/11/23 05:45:00;;;;;;;117.40;94.13;;;;;;;;;;5080204;28;20432;-71
2022/11/23 05:47:26;;;;;;;94.32;72.53;;;;;;;;;;5080737;28;20424;-71
2022/11/23 05:49:51;;;;;;;79.18;60.70;;;;;;;;;;5079086;28;20392;-71
2022/11/23 05:52:17;;;;;;;79.85;59.42;;;;;;;;;;5078545;28;20106;-72
2022/11/23 05:54:42;;;;;;;82.03;63.60;;;;;;;;;;5080416;28;20415;-72
2022/11/23 05:57:07;;;;;;;58.45;43.90;;;;;;;;;;5078361;28;20036;-74
2022/11/23 05:59:33;;;;;;;50.22;39.92;;;;;;;;;;5078439;28;20044;-74
2022/11/23 06:01:58;;;;;;;64.28;50.22;;;;;;;;;;5074788;28;20051;-75
2022/11/23 06:04:23;;;;;;;60.25;45.50;;;;;;;;;;5073292;28;20430;-73
2022/11/23 06:06:49;;;;;;;48.38;37.13;;;;;;;;;;5081920;28;20066;-72
2022/11/23 06:09:14;;;;;;;49.03;36.88;;;;;;;;;;5081310;28;20022;-71
2022/11/23 06:11:40;;;;;;;53.42;41.33;;;;;;;;;;5078642;28;20027;-72
2022/11/23 06:14:05;;;;;;;68.40;51.90;;;;;;;;;;5077128;28;20028;-73
2022/11/23 06:16:31;;;;;;;59.17;45.03;;;;;;;;;;5078867;28;20031;-70
2022/11/23 06:18:56;;;;;;;51.35;40.95;;;;;;;;;;5079590;28;20052;-73
2022/11/23 06:21:21;;;;;;;54.25;41.47;;;;;;;;;;5072976;28;20035;-72
2022/11/23 06:23:47;;;;;;;45.50;36.58;;;;;;;;;;5069938;28;20114;-73
2022/11/23 06:26:12;;;;;;;52.00;39.58;;;;;;;;;;5075577;28;20447;-72
2022/11/23 06:28:38;;;;;;;57.75;42.17;;;;;;;;;;5079635;28;20034;-72
2022/11/23 06:31:04;;;;;;;90.07;73.68;;;;;;;;;;5078221;28;20119;-72
2022/11/23 06:33:29;;;;;;;83.38;60.25;;;;;;;;;;5074960;28;20024;-72
2022/11/23 06:35:56;;;;;;;96.65;68.05;;;;;;;;;;5068766;28;20042;-71
2022/11/23 06:38:21;;;;;;;78.75;56.08;;;;;;;;;;5067301;28;20077;-71
2022/11/23 06:40:47;;;;;;;125.32;91.25;;;;;;;;;;5067558;28;20032;-74
2022/11/23 06:43:12;;;;;;;94.00;69.93;;;;;;;;;;5067904;28;20093;-72
2022/11/23 06:45:37;;;;;;;143.82;107.75;;;;;;;;;;5068039;28;20024;-72
2022/11/23 06:48:03;;;;;;;150.98;122.00;;;;;;;;;;5078034;28;20044;-72
2022/11/23 06:50:28;;;;;;;124.65;98.28;;;;;;;;;;5087489;28;20138;-72
2022/11/23 06:52:55;;;;;;;95.32;75.70;;;;;;;;;;5087175;28;20054;-72
2022/11/23 06:55:20;;;;;;;116.22;85.82;;;;;;;;;;5087363;28;20031;-72
2022/11/23 06:57:45;;;;;;;138.57;99.38;;;;;;;;;;5083628;28;20107;-71
2022/11/23 07:00:11;;;;;;;85.82;63.35;;;;;;;;;;5085502;28;20059;-70
2022/11/23 07:02:36;;;;;;;90.35;66.43;;;;;;;;;;5082463;28;20075;-69
2022/11/23 07:05:02;;;;;;;82.60;59.85;;;;;;;;;;5084006;28;20081;-69
2022/11/23 07:07:27;;;;;;;55.90;43.60;;;;;;;;;;5084693;28;20027;-69
2022/11/23 07:09:52;;;;;;;89.40;64.18;;;;;;;;;;5074663;28;20494;-70
2022/11/23 07:12:18;;;;;;;67.10;53.30;;;;;;;;;;5070360;28;20123;-71
2022/11/23 07:14:43;;;;;;;117.82;91.43;;;;;;;;;;5073529;28;20035;-72
2022/11/23 07:17:08;;;;;;;86.70;69.78;;;;;;;;;;5072878;28;20074;-70
2022/11/23 07:19:34;;;;;;;77.25;61.03;;;;;;;;;;5083435;28;20277;-70
2022/11/23 07:21:59;;;;;;;81.35;63.90;;;;;;;;;;5084543;28;20071;-70
2022/11/23 07:24:24;;;;;;;68.05;53.75;;;;;;;;;;5074784;28;20481;-70
2022/11/23 07:26:50;;;;;;;92.78;66.57;;;;;;;;;;5074356;28;20067;-71
2022/11/23 07:29:15;;;;;;;82.47;59.20;;;;;;;;;;5085539;28;20028;-70
2022/11/23 07:31:40;;;;;;;76.80;57.22;;;;;;;;;;5084028;28;20034;-70
2022/11/23 07:34:08;;;;;;;57.20;44.85;;;;;;;;;;5083288;28;20034;-69
2022/11/23 07:36:33;;;;;;;55.28;41.08;;;;;;;;;;5086286;28;20355;-70
2022/11/23 07:38:59;;;;;;;47.38;36.13;;;;;;;;;;5084265;28;20050;-68
2022/11/23 07:41:26;;;;;;;44.65;34.63;;;;;;;;;;5086625;28;20027;-68
2022/11/23 07:43:51;;;;;;;41.10;33.00;;;;;;;;;;5083685;28;20047;-70
2022/11/23 07:46:16;;;;;;;40.38;31.33;;;;;;;;;;5082201;28;20328;-71
2022/11/23 07:48:42;;;;;;;47.17;39.17;;;;;;;;;;5077623;28;20036;-70
2022/11/23 07:51:07;;;;;;;67.10;51.85;;;;;;;;;;5080908;28;20016;-69
2022/11/23 07:53:34;;;;;;;53.67;41.00;;;;;;;;;;5083758;28;20038;-70
2022/11/23 07:56:00;;;;;;;67.72;54.67;;;;;;;;;;5082096;28;20461;-71
2022/11/23 07:58:25;;;;;;;55.58;44.20;;;;;;;;;;5068829;28;20036;-69
2022/11/23 08:00:50;;;;;;;51.50;42.75;;;;;;;;;;5084639;28;20107;-69
2022/11/23 08:03:16;;;;;;;51.03;40.15;;;;;;;;;;5080064;28;20097;-70
2022/11/23 08:05:41;;;;;;;54.17;43.20;;;;;;;;;;5083737;28;20106;-69
2022/11/23 08:08:07;;;;;;;63.92;50.78;;;;;;;;;;5081178;28;20454;-69
2022/11/23 08:10:32;;;;;;;60.22;49.47;;;;;;;;;;5084199;28;20031;-70
2022/11/23 08:13:02;;;;;;;72.00;57.53;;;;;;;;;;5084270;28;20024;-70
2022/11/23 08:15:27;;;;;;;;;;;;;;;;;;5073763;28;20031;-70
2022/11/23 08:17:54;;;;;;;52.43;39.43;;;;;;;;;;5051190;28;20046;-70
2022/11/23 08:20:19;;;;;;;40.83;33.30;;;;;;;;;;5069633;28;20311;-70
2022/11/23 08:22:44;;;;;;;49.72;40.08;;;;;;;;;;5070384;28;20408;-69
2022/11/23 08:25:10;;;;;;;54.65;44.63;;;;;;;;;;5069319;28;20028;-68
2022/11/23 08:27:35;;;;;;;78.13;60.22;;;;;;;;;;5069966;28;20028;-70
2022/11/23 08:30:00;;;;;;;62.67;50.10;;;;;;;;;;5069492;28;20116;-70
2022/11/23 08:32:26;;;;;;;87.78;67.00;;;;;;;;;;5069499;28;20459;-70
2022/11/23 08:34:51;;;;;;;67.63;55.63;;;;;;;;;;5070144;28;20051;-71
2022/11/23 08:37:17;;;;;;;50.15;39.92;;;;;;;;;;5068838;28;20484;-70
2022/11/23 08:39:42;;;;;;;48.20;41.22;;;;;;;;;;5066069;28;20024;-70
2022/11/23 08:42:08;;;;;;;54.30;42.55;;;;;;;;;;5069940;28;20048;-70
2022/11/23 08:44:35;;;;;;;44.10;36.50;;;;;;;;;;5068742;28;20035;-71
2022/11/23 08:47:00;;;;;;;44.97;35.00;;;;;;;;;;5069875;28;20419;-69
2022/11/23 08:49:26;;;;;;;44.40;37.08;;;;;;;;;;5070355;28;20102;-70
2022/11/23 08:51:51;;;;;;;45.15;37.70;;;;;;;;;;5068960;28;20108;-69
2022/11/23 08:54:16;;;;;;;41.45;34.15;;;;;;;;;;5069509;28;20031;-70
2022/11/23 08:56:42;;;;;;;42.00;35.35;;;;;;;;;;5069295;28;20020;-71
2022/11/23 08:59:07;;;;;;;42.10;35.80;;;;;;;;;;5069996;28;20028;-71
2022/11/23 09:01:33;;;;;;;49.20;43.00;;;;;;;;;;5068941;28;20351;-71
2022/11/23 09:03:58;;;;;;;63.72;50.60;;;;;;;;;;5069474;28;20061;-72
2022/11/23 09:06:27;;;;;;;51.47;41.13;;;;;;;;;;5068904;28;20047;-70
2022/11/23 09:08:53;;;;;;;59.63;47.17;;;;;;;;;;5067007;28;20133;-70
2022/11/23 09:11:18;;;;;;;49.92;39.67;;;;;;;;;;5069704;28;20437;-71
2022/11/23 09:13:45;;;;;;;44.72;36.05;;;;;;;;;;5069606;28;20434;-71
2022/11/23 09:16:10;;;;;;;35.95;28.77;;;;;;;;;;5068417;28;20436;-71
2022/11/23 09:18:35;;;;;;;30.65;25.88;;;;;;;;;;5067953;28;20123;-70
2022/11/23 09:21:02;;;;;;;39.78;33.45;;;;;;;;;;5068614;28;20024;-70
2022/11/23 09:23:28;;;;;;;33.55;29.25;;;;;;;;;;5068675;28;20024;-71
2022/11/23 09:25:53;;;;;;;30.95;26.50;;;;;;;;;;5069270;28;20446;-70
2022/11/23 09:28:18;;;;;;;80.60;54.25;;;;;;;;;;5068463;28;20032;-71
2022/11/23 09:30:45;;;;;;;105.72;74.72;;;;;;;;;;5067398;28;20121;-71
2022/11/23 09:33:11;;;;;;;92.90;83.13;;;;;;;;;;5068312;28;20035;-70
2022/11/23 09:35:36;;;;;;;190.43;170.40;;;;;;;;;;5068835;28;20028;-70
2022/11/23 09:38:02;;;;;;;72.93;58.03;;;;;;;;;;5067832;28;20084;-71
2022/11/23 09:40:30;;;;;;;72.05;63.10;;;;;;;;;;5067979;28;20024;-71
2022/11/23 09:43:06;;;;;;;58.00;51.08;;;;;;;;;;5066400;28;20047;-69
2022/11/23 09:45:49;;;;;;;60.33;52.83;;;;;;;;;;5067562;28;20379;-70
2022/11/23 09:48:26;;;;;;;55.47;49.53;;;;;;;;;;5068500;28;20028;-70
2022/11/23 09:51:04;;;;;;;48.55;40.42;;;;;;;;;;5068586;28;20081;-69
2022/11/23 09:53:33;;;;;;;53.38;44.92;;;;;;;;;;5069190;28;20028;-69
2022/11/23 09:55:58;;;;;;;66.00;53.88;;;;;;;;;;5067713;28;20039;-70
2022/11/23 09:58:27;;;;;;;53.70;42.75;;;;;;;;;;5064690;28;20032;-70
2022/11/23 10:00:58;;;;;;;51.63;40.70;;;;;;;;;;5066908;28;20035;-69
2022/11/23 10:03:23;;;;;;;47.88;39.92;;;;;;;;;;5065920;28;20455;-70
2022/11/23 10:06:09;;;;;;;53.35;40.90;;;;;;;;;;5068241;28;20058;-70
2022/11/23 10:08:44;;;;;;;59.60;51.22;;;;;;;;;;5056728;28;20132;-69
2022/11/23 10:11:27;;;;;;;74.53;63.28;;;;;;;;;;5068108;28;20035;-70
2022/11/23 10:14:13;;;;;;;63.00;54.35;;;;;;;;;;5068764;28;20103;-69
2022/11/23 10:16:44;;;;;;;59.40;50.72;;;;;;;;;;5035614;28;20060;-69
2022/11/23 10:19:18;;;;;;;68.05;59.03;;;;;;;;;;5067293;28;20051;-70
2022/11/23 10:22:07;;;;;;;53.28;42.60;;;;;;;;;;5067821;28;20363;-69
2022/11/23 10:24:37;;;;;;;79.47;61.22;;;;;;;;;;5037006;28;20086;-69
2022/11/23 10:27:05;;;;;;;56.30;45.88;;;;;;;;;;5067236;28;20020;-69
2022/11/23 10:29:37;;;;;;;50.22;41.40;;;;;;;;;;5067941;28;20107;-69
2022/11/23 10:32:05;;;;;;;66.43;51.55;;;;;;;;;;5067671;28;20024;-70
2022/11/23 10:34:37;;;;;;;53.67;43.25;;;;;;;;;;5067402;28;20032;-70
2022/11/23 10:37:02;;;;;;;51.97;42.13;;;;;;;;;;5068166;28;20447;-70
2022/11/23 10:39:27;;;;;;;50.28;41.38;;;;;;;;;;5067413;28;20024;-69
2022/11/23 10:41:56;;;;;;;42.20;37.05;;;;;;;;;;5068161;28;20050;-72
2022/11/23 10:44:28;;;;;;;39.95;35.58;;;;;;;;;;5066532;28;20033;-70
2022/11/23 10:46:54;;;;;;;58.53;44.65;;;;;;;;;;5067425;28;20119;-71
2022/11/23 10:49:22;;;;;;;34.08;29.63;;;;;;;;;;5050828;28;20060;-71
2022/11/23 10:52:07;;;;;;;27.55;24.65;;;;;;;;;;5067404;28;20359;-70
2022/11/23 10:54:34;;;;;;;28.75;24.23;;;;;;;;;;5067225;28;20441;-71
2022/11/23 10:57:00;;;;;;;28.02;25.02;;;;;;;;;;5066550;28;20040;-71
2022/11/23 10:59:30;;;;;;;38.90;32.90;;;;;;;;;;5066851;28;20031;-69
2022/11/23 11:02:12;;;;;;;30.63;26.85;;;;;;;;;;5066934;28;20031;-71
2022/11/23 11:04:37;;;;;;;81.28;73.07;;;;;;;;;;5066527;28;20455;-71
2022/11/23 11:07:09;;;;;;;36.05;32.28;;;;;;;;;;5066639;28;20073;-70
2022/11/23 11:09:35;;;;;;;33.63;30.10;;;;;;;;;;5065736;28;20020;-74
2022/11/23 11:12:00;;;;;;;30.40;27.10;;;;;;;;;;5065776;28;20036;-72
2022/11/23 11:14:26;;;;;;;34.38;30.65;;;;;;;;;;5066415;28;20024;-70
2022/11/23 11:16:56;;;;;;;42.85;35.70;;;;;;;;;;5066789;28;20098;-71
2022/11/23 11:19:28;;;;;;;31.17;27.83;;;;;;;;;;5065349;28;20051;-72
2022/11/23 11:21:54;;;;;;;38.40;34.20;;;;;;;;;;5073613;28;20020;-71
2022/11/23 11:24:26;;;;;;;37.53;33.38;;;;;;;;;;5077649;28;20397;-72
2022/11/23 11:26:56;;;;;;;55.67;49.85;;;;;;;;;;5076664;28;20027;-72
2022/11/23 11:29:32;;;;;;;55.33;49.33;;;;;;;;;;5076022;28;20059;-73
2022/11/23 11:31:57;;;;;;;67.68;52.15;;;;;;;;;;5077080;28;20086;-70
2022/11/23 11:34:25;;;;;;;249.00;158.90;;;;;;;;;;5076699;28;20475;-71
2022/11/23 11:37:10;;;;;;;87.43;65.32;;;;;;;;;;5081322;28;20401;-70
2022/11/23 11:39:57;;;;;;;57.42;47.88;;;;;;;;;;5077711;28;20106;-70
2022/11/23 11:42:29;;;;;;;65.72;55.47;;;;;;;;;;5079579;28;20032;-71
2022/11/23 11:44:55;;;;;;;72.95;60.45;;;;;;;;;;5082071;28;20024;-70
2022/11/23 11:47:28;;;;;;;103.43;83.45;;;;;;;;;;5082349;28;20032;-71
2022/11/23 11:49:55;;;;;;;129.02;110.10;;;;;;;;;;5070960;28;20135;-70
2022/11/23 11:52:23;;;;;;;133.75;117.53;;;;;;;;;;5076966;28;20047;-70
2022/11/23 11:55:00;;;;;;;96.65;84.43;;;;;;;;;;5077684;28;20024;-69
2022/11/23 11:57:31;;;;;;;54.67;48.55;;;;;;;;;;5074860;28;20107;-70
2022/11/23 11:59:58;;;;;;;49.00;40.85;;;;;;;;;;5078630;28;20039;-71
2022/11/23 12:02:28;;;;;;;91.55;72.38;;;;;;;;;;5076329;28;20027;-71
2022/11/23 12:05:00;;;;;;;59.00;51.20;;;;;;;;;;5069186;28;20111;-71
2022/11/23 12:07:51;;;;;;;59.75;47.63;;;;;;;;;;5079617;28;20027;-71
2022/11/23 12:10:28;;;;;;;57.25;51.10;;;;;;;;;;5076009;28;20043;-70
2022/11/23 12:12:55;;;;;;;52.53;45.88;;;;;;;;;;5081189;28;20035;-71
2022/11/23 12:15:28;;;;;;;50.45;41.75;;;;;;;;;;5080865;28;20028;-70
2022/11/23 12:18:03;;;;;;;75.00;56.80;;;;;;;;;;5081238;28;20095;-69
2022/11/23 12:20:47;;;;;;;128.90;99.80;;;;;;;;;;5082244;28;20044;-69
2022/11/23 12:23:18;;;;;;;80.35;71.63;;;;;;;;;;5079414;28;20477;-69
2022/11/23 12:25:50;;;;;;;65.97;58.97;;;;;;;;;;5081427;28;20085;-70
2022/11/23 12:28:25;;;;;;;65.75;58.70;;;;;;;;;;5079945;28;20023;-70
2022/11/23 12:31:05;;;;;;;61.33;54.80;;;;;;;;;;5081735;28;20024;-70
2022/11/23 12:33:30;;;;;;;;;;;;;;;;;;5079792;28;20020;-70
2022/11/23 12:35:55;;;;;;;40.97;35.53;;;;;;;;;;5081956;28;20799;-70
2022/11/23 12:38:47;;;;;;;46.58;39.85;;;;;;;;;;5080985;28;20052;-71
2022/11/23 12:41:15;;;;;;;49.83;43.92;;;;;;;;;;5076299;28;20032;-72
2022/11/23 12:43:46;;;;;;;34.55;30.50;;;;;;;;;;5080096;28;20024;-70
2022/11/23 12:46:14;;;;;;;34.17;28.23;;;;;;;;;;5081195;28;20051;-71
2022/11/23 12:49:02;;;;;;;34.45;30.77;;;;;;;;;;5079052;28;20032;-70
2022/11/23 12:51:33;;;;;;;34.15;30.42;;;;;;;;;;5077469;28;20139;-70
2022/11/23 12:53:58;;;;;;;38.25;33.35;;;;;;;;;;5080139;28;20047;-70
2022/11/23 12:56:27;;;;;;;34.28;30.60;;;;;;;;;;5081084;28;20431;-70
2022/11/23 12:58:53;;;;;;;33.25;29.25;;;;;;;;;;5081628;28;20028;-70
2022/11/23 13:01:21;;;;;;;37.15;33.15;;;;;;;;;;5079928;28;20044;-71
2022/11/23 13:04:07;;;;;;;39.42;34.35;;;;;;;;;;5080261;28;20044;-71
2022/11/23 13:06:51;;;;;;;45.67;36.90;;;;;;;;;;5079078;28;20435;-71
2022/11/23 13:09:52;;;;;;;45.25;36.88;;;;;;;;;;5080155;28;20067;-71
2022/11/23 13:12:27;;;;;;;38.10;33.97;;;;;;;;;;5051476;28;20032;-70
2022/11/23 13:14:59;;;;;;;36.55;32.58;;;;;;;;;;5077342;28;20016;-70
2022/11/23 13:17:30;;;;;;;37.92;32.78;;;;;;;;;;5077976;28;20024;-71
2022/11/23 13:19:55;;;;;;;35.10;29.42;;;;;;;;;;5078784;28;20367;-70
2022/11/23 13:22:22;;;;;;;34.90;31.10;;;;;;;;;;5078078;28;20039;-70
2022/11/23 13:25:12;;;;;;;39.83;33.90;;;;;;;;;;5080017;28;20054;-71
2022/11/23 13:27:53;;;;;;;44.58;37.17;;;;;;;;;;5080251;28;20382;-70
2022/11/23 13:30:26;;;;;;;45.05;36.88;;;;;;;;;;5077612;28;20035;-69
2022/11/23 13:32:59;;;;;;;43.08;36.03;;;;;;;;;;5079185;28;20028;-71
2022/11/23 13:35:24;;;;;;;45.28;40.38;;;;;;;;;;5079117;28;20032;-72
2022/11/23 13:37:55;;;;;;;40.97;35.88;;;;;;;;;;5078046;28;20073;-71
2022/11/23 13:40:23;;;;;;;38.78;34.30;;;;;;;;;;5080214;28;20024;-72
2022/11/23 13:42:50;;;;;;;41.90;37.03;;;;;;;;;;5076910;28;20580;-72
2022/11/23 13:45:15;;;;;;;44.88;36.80;;;;;;;;;;5078754;28;20112;-71
2022/11/23 13:47:41;;;;;;;49.30;40.53;;;;;;;;;;5079304;28;20447;-71
2022/11/23 13:50:08;;;;;;;51.17;39.25;;;;;;;;;;5078983;28;20024;-71
2022/11/23 13:52:35;;;;;;;53.17;40.45;;;;;;;;;;5078451;28;20024;-71
2022/11/23 13:55:06;;;;;;;45.05;38.53;;;;;;;;;;5078639;28;20024;-71
2022/11/23 13:57:31;;;;;;;43.45;35.03;;;;;;;;;;5079688;28;20406;-71
2022/11/23 14:00:15;;;;;;;46.35;35.55;;;;;;;;;;5077637;28;20016;-72
2022/11/23 14:02:41;;;;;;;46.85;38.15;;;;;;;;;;5078415;28;20028;-72
2022/11/23 14:05:29;;;;;;;45.90;38.85;;;;;;;;;;5079546;28;20031;-72
2022/11/23 14:07:55;;;;;;;47.28;39.70;;;;;;;;;;5064888;28;20024;-71
2022/11/23 14:10:22;;;;;;;43.03;35.83;;;;;;;;;;5077111;28;20161;-71
2022/11/23 14:12:50;;;;;;;41.28;34.95;;;;;;;;;;5078522;28;20024;-72
2022/11/23 14:15:19;;;;;;;41.72;33.85;;;;;;;;;;5077360;28;20398;-71
2022/11/23 14:17:45;;;;;;;;;;;;;;;;;;5079053;28;21275;-72
2022/11/23 14:20:16;;;;;;;34.40;30.40;;;;;;;;;;5079143;28;19916;-71